Time;durP1;ratioP1;P1;durP2;ratioP2;P2;SDS_P1;SDS_P2;PMS_P1;PMS_P2;Temp;Humidity;BMP_temperature;BMP_pressure;BME280_temperature;BME280_humidity;BME280_pressure;Samples;Min_cycle;Max_cycle;Signal;HPM_P1;HPM_P2
2022/06/02 00:02:13;;;;;;;9.50;6.80;;;12.10;99.90;;;;;;5042238;28;20479;-60
2022/06/02 00:04:53;;;;;;;7.20;5.07;;;12.00;99.90;;;;;;5039316;28;20449;-62
2022/06/02 00:07:44;;;;;;;6.50;4.77;;;12.00;99.90;;;;;;5042056;28;20430;-60
2022/06/02 00:10:34;;;;;;;5.30;4.80;;;11.90;99.90;;;;;;5037471;28;20434;-61
2022/06/02 00:13:12;;;;;;;5.83;4.90;;;11.90;99.90;;;;;;5035695;28;20508;-60
2022/06/02 00:16:03;;;;;;;6.13;5.33;;;11.90;99.90;;;;;;5033356;28;20432;-61
2022/06/02 00:18:48;;;;;;;5.67;5.07;;;11.80;99.90;;;;;;5041263;28;20425;-60
2022/06/02 00:21:16;;;;;;;6.57;5.30;;;11.80;99.90;;;;;;5046613;28;20429;-60
2022/06/02 00:23:59;;;;;;;5.90;4.93;;;11.80;99.90;;;;;;5053459;28;20483;-60
2022/06/02 00:26:39;;;;;;;7.93;4.90;;;11.80;99.90;;;;;;5048192;28;20505;-60
2022/06/02 00:29:14;;;;;;;6.10;5.20;;;11.80;99.90;;;;;;5036976;28;20452;-60
2022/06/02 00:31:39;;;;;;;8.77;5.70;;;11.80;99.90;;;;;;5040055;28;20430;-60
2022/06/02 00:34:08;;;;;;;8.57;5.57;;;11.80;99.90;;;;;;5040383;28;21179;-60
2022/06/02 00:36:59;;;;;;;6.93;6.17;;;11.70;99.90;;;;;;5043917;28;20281;-60
2022/06/02 00:39:25;;;;;;;8.63;5.67;;;11.70;99.90;;;;;;5040801;28;20433;-60
2022/06/02 00:41:53;;;;;;;7.93;5.80;;;11.70;99.90;;;;;;5043992;28;20419;-60
2022/06/02 00:44:39;;;;;;;11.07;6.40;;;11.70;99.90;;;;;;5042416;28;20211;-60
2022/06/02 00:47:31;;;;;;;8.83;6.00;;;11.70;99.90;;;;;;5043347;28;20968;-61
2022/06/02 00:50:10;;;;;;;7.50;5.80;;;11.70;99.90;;;;;;5040406;28;20877;-60
2022/06/02 00:52:59;;;;;;;8.07;5.47;;;11.70;99.90;;;;;;5041316;28;21095;-59
2022/06/02 00:58:51;;;;;;;12.57;6.10;;;11.70;99.90;;;;;;5035684;28;20491;-60
2022/06/02 01:01:25;;;;;;;9.00;5.57;;;11.70;99.90;;;;;;5034510;28;20509;-59
2022/06/02 01:03:54;;;;;;;5.90;5.00;;;11.60;99.90;;;;;;5041061;28;20448;-59
2022/06/02 01:06:26;;;;;;;5.60;4.90;;;11.60;99.90;;;;;;5039767;28;20465;-59
2022/06/02 01:09:24;;;;;;;7.70;6.37;;;11.60;99.90;;;;;;5043049;28;20453;-60
2022/06/02 01:12:01;;;;;;;5.87;5.23;;;11.60;99.90;;;;;;5044765;28;21006;-60
2022/06/02 01:15:10;;;;;;;7.10;5.57;;;11.60;99.90;;;;;;5043340;28;20450;-59
2022/06/02 01:17:54;;;;;;;6.90;5.37;;;11.60;99.90;;;;;;5046633;28;20428;-60
2022/06/02 01:20:35;;;;;;;11.37;5.03;;;11.60;99.90;;;;;;5047982;28;20450;-60
2022/06/02 01:23:12;;;;;;;5.63;5.10;;;11.60;99.90;;;;;;5047398;28;20490;-59
2022/06/02 01:25:37;;;;;;;9.60;5.30;;;11.60;99.90;;;;;;5045703;28;20440;-60
2022/06/02 01:28:12;;;;;;;5.30;4.80;;;11.60;99.90;;;;;;5051679;28;20494;-59
2022/06/02 01:31:03;;;;;;;7.20;5.47;;;11.60;99.90;;;;;;5045140;28;20234;-60
2022/06/02 01:33:28;;;;;;;5.60;5.00;;;11.50;99.90;;;;;;5045562;28;20500;-60
2022/06/02 01:36:07;;;;;;;5.00;4.53;;;11.60;99.90;;;;;;5044335;28;20449;-59
2022/06/02 01:38:54;;;;;;;6.30;5.70;;;11.50;99.90;;;;;;5045417;28;20203;-60
2022/06/02 01:41:50;;;;;;;5.83;5.30;;;11.50;99.90;;;;;;5043650;28;20815;-59
2022/06/02 01:44:15;;;;;;;6.20;5.60;;;11.50;99.90;;;;;;5053865;28;20522;-60
2022/06/02 01:47:02;;;;;;;10.53;6.23;;;11.50;99.90;;;;;;5065562;28;20436;-59
2022/06/02 01:49:48;;;;;;;10.20;6.50;;;11.50;99.90;;;;;;5044721;28;20197;-60
2022/06/02 01:52:38;;;;;;;7.40;5.90;;;11.50;99.90;;;;;;5043063;28;20507;-60
2022/06/02 01:55:16;;;;;;;7.80;5.47;;;11.50;99.90;;;;;;5045821;28;20454;-60
2022/06/02 01:57:51;;;;;;;5.13;4.73;;;11.40;99.90;;;;;;5045666;28;21060;-60
2022/06/02 02:00:21;;;;;;;6.83;5.57;;;11.40;99.90;;;;;;5056874;28;20433;-58
2022/06/02 02:03:44;;;;;;;6.47;5.40;;;11.40;99.90;;;;;;5044806;28;20448;-59
2022/06/02 02:06:17;;;;;;;8.33;5.20;;;11.40;99.90;;;;;;5011264;28;20480;-60
2022/06/02 02:08:54;;;;;;;5.97;5.00;;;11.40;99.90;;;;;;5012784;28;20542;-59
2022/06/02 02:11:38;;;;;;;6.77;5.67;;;11.40;99.90;;;;;;5032603;28;20441;-59
2022/06/02 02:14:18;;;;;;;6.20;5.40;;;11.40;99.90;;;;;;5042766;28;20457;-60
2022/06/02 02:16:44;;;;;;;5.47;4.97;;;11.40;99.90;;;;;;5038180;28;20498;-60
2022/06/02 02:19:26;;;;;;;8.73;5.53;;;11.40;99.90;;;;;;5035459;28;20833;-61
2022/06/02 02:21:55;;;;;;;8.23;5.40;;;11.40;99.90;;;;;;5052176;28;20718;-59
2022/06/02 02:25:04;;;;;;;7.33;5.27;;;11.40;99.90;;;;;;5041742;28;20825;-60
2022/06/02 02:28:02;;;;;;;6.60;5.27;;;11.40;99.90;;;;;;5028579;28;20530;-60
2022/06/02 02:30:23;;;;;;;12.13;5.80;;;11.40;99.90;;;;;;5042943;28;20425;-59
2022/06/02 02:33:22;;;;;;;6.80;5.37;;;11.40;99.90;;;;;;5045362;28;20448;-59
2022/06/02 02:36:06;;;;;;;10.00;5.50;;;11.40;99.90;;;;;;5040409;28;20524;-59
2022/06/02 02:39:09;;;;;;;10.10;4.80;;;11.40;99.90;;;;;;5049011;28;20423;-59
2022/06/02 02:41:51;;;;;;;5.50;5.00;;;11.40;99.90;;;;;;5044650;28;20452;-59
2022/06/02 02:44:28;;;;;;;5.47;4.67;;;11.40;99.90;;;;;;5044008;28;20473;-58
2022/06/02 02:47:03;;;;;;;5.60;5.00;;;11.40;99.90;;;;;;5042042;28;20439;-60
2022/06/02 02:49:41;;;;;;;6.57;5.10;;;11.40;99.90;;;;;;5041362;28;21159;-59
2022/06/02 02:52:34;;;;;;;5.97;5.37;;;11.40;99.90;;;;;;5037363;28;20461;-59
2022/06/02 02:55:08;;;;;;;13.40;5.63;;;11.40;99.90;;;;;;5041812;28;20452;-60
2022/06/02 02:57:42;;;;;;;5.43;4.93;;;11.30;99.90;;;;;;5048252;28;20461;-60
2022/06/02 03:00:17;;;;;;;6.23;5.17;;;11.30;99.90;;;;;;5038227;28;21024;-60
2022/06/02 03:03:03;;;;;;;5.90;4.67;;;11.30;99.90;;;;;;5042803;28;20604;-59
2022/06/02 03:06:01;;;;;;;5.07;4.57;;;11.30;99.90;;;;;;5043650;28;20445;-59
2022/06/02 03:08:46;;;;;;;5.07;4.57;;;11.30;99.90;;;;;;5045962;28;20449;-60
2022/06/02 03:11:41;;;;;;;6.73;4.83;;;11.20;99.90;;;;;;5042429;28;20429;-59
2022/06/02 03:14:39;;;;;;;9.00;4.90;;;11.20;99.90;;;;;;5041686;28;20962;-60
2022/06/02 03:17:08;;;;;;;5.20;4.70;;;11.20;99.90;;;;;;5044074;28;20425;-59
2022/06/02 03:19:53;;;;;;;6.80;5.40;;;11.20;99.90;;;;;;5040152;28;20433;-59
2022/06/02 03:22:48;;;;;;;5.90;5.40;;;11.10;99.90;;;;;;5045943;28;20953;-59
2022/06/02 03:25:24;;;;;;;7.87;4.90;;;11.10;99.90;;;;;;5040328;28;20491;-60
2022/06/02 03:28:16;;;;;;;5.50;4.90;;;11.10;99.90;;;;;;5039245;28;20429;-60
2022/06/02 03:31:03;;;;;;;7.00;5.80;;;11.10;99.90;;;;;;5046271;28;20520;-60
2022/06/02 03:33:50;;;;;;;6.33;5.73;;;11.00;99.90;;;;;;5039891;28;20457;-60
2022/06/02 03:36:33;;;;;;;5.73;5.17;;;11.00;99.90;;;;;;5044332;28;20838;-60
2022/06/02 03:39:28;;;;;;;5.40;4.80;;;11.00;99.90;;;;;;5037345;28;20425;-60
2022/06/02 03:42:15;;;;;;;9.93;5.03;;;11.00;99.90;;;;;;5036021;28;20834;-60
2022/06/02 03:45:07;;;;;;;8.43;5.63;;;11.00;99.90;;;;;;5055803;28;20443;-60
2022/06/02 03:48:12;;;;;;;5.80;5.20;;;11.00;99.90;;;;;;5047555;28;20422;-60
2022/06/02 03:50:55;;;;;;;9.03;5.13;;;11.00;99.90;;;;;;5039338;28;20487;-61
2022/06/02 03:53:21;;;;;;;5.63;5.13;;;11.00;99.90;;;;;;5038412;28;20592;-60
2022/06/02 03:56:08;;;;;;;9.90;5.10;;;11.00;99.90;;;;;;5032596;28;20517;-57
2022/06/02 03:59:10;;;;;;;5.87;5.30;;;11.00;99.90;;;;;;5035013;28;20847;-53
2022/06/02 04:01:41;;;;;;;8.80;5.57;;;10.90;99.90;;;;;;5037723;28;20429;-53
2022/06/02 04:04:30;;;;;;;6.97;5.37;;;10.90;99.90;;;;;;5039116;28;20457;-53
2022/06/02 04:07:18;;;;;;;6.27;5.40;;;10.90;99.90;;;;;;5031895;28;20486;-61
2022/06/02 04:09:49;;;;;;;9.80;5.40;;;10.90;99.90;;;;;;5032468;28;20429;-60
2022/06/02 04:15:51;;;;;;;5.50;4.57;;;10.80;99.90;;;;;;5041953;28;20416;-60
2022/06/02 04:19:01;;;;;;;5.93;5.33;;;10.80;99.90;;;;;;5039978;28;21186;-62
2022/06/02 04:21:45;;;;;;;6.30;5.60;;;10.80;99.90;;;;;;5033661;28;20426;-61
2022/06/02 04:24:18;;;;;;;6.80;5.03;;;10.80;99.90;;;;;;5041705;28;20985;-62
2022/06/02 04:27:02;;;;;;;7.43;5.37;;;10.80;99.90;;;;;;5034225;28;21657;-61
2022/06/02 04:29:46;;;;;;;8.53;5.20;;;10.70;99.90;;;;;;5031550;28;20441;-61
2022/06/02 04:32:11;;;;;;;9.30;5.43;;;10.80;99.90;;;;;;5039569;28;20579;-62
2022/06/02 04:35:00;;;;;;;5.90;5.03;;;10.80;99.90;;;;;;5036135;28;20461;-61
2022/06/02 04:37:43;;;;;;;6.43;4.93;;;10.80;99.90;;;;;;5042236;28;20266;-60
2022/06/02 04:40:33;;;;;;;14.60;5.33;;;10.80;99.90;;;;;;5039095;28;20430;-61
2022/06/02 04:43:15;;;;;;;6.10;4.53;;;10.90;99.90;;;;;;5038153;28;20433;-61
2022/06/02 04:46:01;;;;;;;6.30;5.10;;;10.90;99.90;;;;;;5038183;28;20429;-61
2022/06/02 04:48:26;;;;;;;5.90;5.30;;;11.00;99.90;;;;;;5035638;28;20521;-60
2022/06/02 04:51:10;;;;;;;6.80;5.40;;;11.00;99.90;;;;;;5041494;28;21028;-60
2022/06/02 04:53:51;;;;;;;5.93;5.33;;;11.10;99.90;;;;;;5035934;28;20199;-62
2022/06/02 04:56:31;;;;;;;8.80;7.00;;;11.20;99.90;;;;;;5027644;28;21479;-62
2022/06/02 04:59:25;;;;;;;7.97;5.43;;;11.20;99.90;;;;;;5039535;28;20467;-60
2022/06/02 05:02:21;;;;;;;7.10;5.53;;;11.30;99.90;;;;;;5039605;28;20429;-60
2022/06/02 05:05:04;;;;;;;8.70;5.83;;;11.40;99.90;;;;;;5044380;28;20443;-60
2022/06/02 05:07:55;;;;;;;10.13;5.67;;;11.50;99.90;;;;;;5048809;28;20405;-60
2022/06/02 05:10:39;;;;;;;6.43;4.60;;;11.50;99.90;;;;;;5046110;28;20429;-60
2022/06/02 05:13:34;;;;;;;6.53;4.57;;;11.60;99.90;;;;;;5029410;28;20549;-60
2022/06/02 05:16:03;;;;;;;5.40;4.67;;;11.70;99.90;;;;;;5042383;28;20451;-60
2022/06/02 05:18:43;;;;;;;6.93;5.10;;;11.80;99.90;;;;;;5050787;28;20426;-61
2022/06/02 05:21:40;;;;;;;5.07;4.60;;;11.80;99.90;;;;;;5040015;28;20502;-61
2022/06/02 05:24:24;;;;;;;8.20;5.23;;;11.80;99.90;;;;;;5037280;28;20457;-61
2022/06/02 05:27:15;;;;;;;6.73;5.60;;;11.80;99.90;;;;;;5041875;28;20494;-62
2022/06/02 05:30:13;;;;;;;6.20;5.20;;;11.80;99.90;;;;;;5037005;28;20442;-61
2022/06/02 05:33:03;;;;;;;9.63;5.27;;;11.90;99.90;;;;;;5046171;28;20493;-60
2022/06/02 05:35:58;;;;;;;7.50;6.60;;;11.90;99.90;;;;;;5041059;28;20453;-60
2022/06/02 05:39:00;;;;;;;9.30;7.53;;;12.00;99.90;;;;;;5040542;28;20433;-61
2022/06/02 05:42:02;;;;;;;7.70;6.87;;;12.20;99.90;;;;;;5046852;28;20508;-60
2022/06/02 05:44:45;;;;;;;8.60;6.73;;;12.40;99.90;;;;;;5042338;28;20442;-60
2022/06/02 05:47:31;;;;;;;11.43;7.27;;;12.50;99.90;;;;;;5035382;28;20517;-60
2022/06/02 05:50:15;;;;;;;10.23;7.40;;;12.50;99.90;;;;;;5043120;28;20418;-60
2022/06/02 05:53:02;;;;;;;9.80;7.93;;;12.50;99.90;;;;;;5047177;28;20549;-60
2022/06/02 05:55:46;;;;;;;13.33;9.43;;;12.60;99.90;;;;;;5051582;28;20413;-60
2022/06/02 05:58:23;;;;;;;15.73;9.57;;;12.60;99.90;;;;;;5052647;28;20410;-61
2022/06/02 06:01:16;;;;;;;9.87;7.93;;;12.60;99.90;;;;;;5052850;28;20400;-62
2022/06/02 06:04:00;;;;;;;13.80;7.60;;;12.70;99.90;;;;;;5033539;28;20437;-61
2022/06/02 06:06:34;;;;;;;9.00;7.50;;;12.70;99.90;;;;;;5052301;28;20428;-61
2022/06/02 06:09:02;;;;;;;10.73;7.60;;;12.60;99.90;;;;;;5050952;28;20417;-61
2022/06/02 06:11:34;;;;;;;13.50;8.80;;;12.60;99.90;;;;;;5040252;28;20434;-61
2022/06/02 06:14:15;;;;;;;12.40;7.60;;;12.60;99.90;;;;;;5031687;28;20507;-60
2022/06/02 06:17:05;;;;;;;10.13;7.80;;;12.60;99.90;;;;;;5032070;28;20502;-61
2022/06/02 06:19:42;;;;;;;11.43;7.60;;;12.80;99.90;;;;;;5041720;28;20425;-60
2022/06/02 06:22:29;;;;;;;11.73;5.93;;;12.90;99.90;;;;;;5051961;28;20413;-60
2022/06/02 06:24:55;;;;;;;8.53;6.67;;;13.00;99.90;;;;;;5049760;28;20469;-61
2022/06/02 06:27:34;;;;;;;9.83;6.37;;;13.10;99.90;;;;;;5048258;28;20977;-62
2022/06/02 06:30:09;;;;;;;8.40;6.00;;;13.20;99.90;;;;;;5045110;28;20167;-60
2022/06/02 06:32:52;;;;;;;4.37;4.00;;;13.20;99.90;;;;;;5045741;28;20477;-60
2022/06/02 06:35:20;;;;;;;8.60;5.07;;;13.30;99.90;;;;;;5038570;28;20433;-60
2022/06/02 06:38:06;;;;;;;6.20;4.33;;;13.40;99.90;;;;;;5051755;28;20432;-60
2022/06/02 06:40:53;;;;;;;12.43;3.80;;;13.60;99.90;;;;;;5050282;28;20543;-60
2022/06/02 06:43:18;;;;;;;6.63;3.60;;;13.80;97.70;;;;;;5038452;28;20433;-62
2022/06/02 06:45:50;;;;;;;6.40;3.70;;;14.00;94.30;;;;;;5031596;28;20430;-60
2022/06/02 06:48:31;;;;;;;3.83;3.50;;;14.20;91.10;;;;;;5032116;28;20656;-61
2022/06/02 06:51:04;;;;;;;7.23;3.93;;;14.40;89.30;;;;;;5034408;28;20403;-61
2022/06/02 06:53:48;;;;;;;6.03;3.90;;;14.60;84.90;;;;;;5034305;28;20519;-61
2022/06/02 06:56:28;;;;;;;5.33;3.10;;;14.80;80.00;;;;;;5047601;28;20445;-61
2022/06/02 06:58:57;;;;;;;8.10;3.53;;;14.90;77.90;;;;;;5051135;28;20800;-61
2022/06/02 07:01:41;;;;;;;6.60;3.27;;;15.00;75.30;;;;;;5042292;28;20426;-59
2022/06/02 07:04:46;;;;;;;4.33;3.10;;;15.00;74.50;;;;;;5046695;28;20556;-60
2022/06/02 07:07:34;;;;;;;5.33;3.10;;;15.00;72.70;;;;;;5019429;28;20430;-61
2022/06/02 07:10:19;;;;;;;3.27;2.73;;;15.00;71.30;;;;;;5041578;28;20474;-62
2022/06/02 07:12:51;;;;;;;4.33;2.97;;;15.10;71.70;;;;;;5032992;28;20458;-61
2022/06/02 07:15:19;;;;;;;2.60;2.40;;;15.20;69.20;;;;;;5049264;28;20452;-60
2022/06/02 07:18:14;;;;;;;3.87;2.50;;;15.20;68.60;;;;;;5049962;28;20515;-60
2022/06/02 07:21:07;;;;;;;3.50;2.60;;;15.20;67.80;;;;;;5049750;28;20492;-62
2022/06/02 07:23:54;;;;;;;2.93;2.63;;;15.30;67.80;;;;;;5043956;28;20541;-62
2022/06/02 07:26:57;;;;;;;2.53;2.33;;;15.50;65.60;;;;;;5040477;28;21008;-61
2022/06/02 07:29:44;;;;;;;7.10;2.70;;;15.60;64.70;;;;;;5050830;28;20393;-61
2022/06/02 07:32:26;;;;;;;5.20;2.77;;;15.80;64.10;;;;;;5030922;28;20477;-61
2022/06/02 07:35:29;;;;;;;4.47;2.90;;;16.00;63.60;;;;;;5045489;28;20437;-60
2022/06/02 07:38:22;;;;;;;4.20;2.40;;;16.10;63.20;;;;;;5039372;28;20437;-61
2022/06/02 07:41:16;;;;;;;3.17;2.40;;;16.30;62.80;;;;;;5039742;28;20422;-61
2022/06/02 07:43:51;;;;;;;5.47;2.70;;;16.40;62.10;;;;;;5040184;28;20488;-62
2022/06/02 07:46:17;;;;;;;4.40;2.67;;;16.60;61.20;;;;;;5050482;28;20409;-62
2022/06/02 07:49:24;;;;;;;3.93;2.50;;;16.70;61.30;;;;;;5041865;28;20597;-61
2022/06/02 07:52:13;;;;;;;2.60;2.40;;;16.80;61.00;;;;;;4994158;28;20211;-62
2022/06/02 07:54:54;;;;;;;3.97;2.27;;;17.00;60.60;;;;;;4987770;28;21003;-62
2022/06/02 07:57:48;;;;;;;6.73;2.40;;;17.10;59.90;;;;;;5037536;28;20453;-61
2022/06/02 08:00:19;;;;;;;3.40;2.50;;;17.20;59.20;;;;;;5033861;28;20941;-61
2022/06/02 08:03:09;;;;;;;2.80;2.40;;;17.20;59.30;;;;;;5042692;28;21000;-61
2022/06/02 08:05:38;;;;;;;2.60;2.30;;;17.30;58.30;;;;;;5036429;28;20430;-61
2022/06/02 08:08:29;;;;;;;3.00;2.10;;;17.30;58.10;;;;;;5035300;28;20458;-61
2022/06/02 08:11:41;;;;;;;2.77;1.80;;;17.30;57.90;;;;;;5034021;28;20456;-62
2022/06/02 08:15:05;;;;;;;5.33;2.27;;;17.40;58.00;;;;;;5048179;28;21286;-61
2022/06/02 08:17:37;;;;;;;3.53;2.27;;;17.60;57.40;;;;;;5001663;28;20421;-61
2022/06/02 08:20:15;;;;;;;2.57;2.17;;;17.70;57.20;;;;;;5047154;28;21172;-60
2022/06/02 08:22:54;;;;;;;5.20;2.23;;;17.80;56.80;;;;;;5044901;28;20434;-62
2022/06/02 08:25:23;;;;;;;4.70;2.00;;;17.90;56.50;;;;;;5036609;28;20918;-61
2022/06/02 08:27:59;;;;;;;4.70;1.90;;;18.00;56.60;;;;;;5042816;28;20413;-61
2022/06/02 08:30:40;;;;;;;2.93;1.80;;;18.10;56.30;;;;;;5049281;28;20420;-60
2022/06/02 08:33:25;;;;;;;5.50;2.50;;;18.20;56.10;;;;;;5041529;28;20606;-61
2022/06/02 08:36:29;;;;;;;2.10;2.00;;;18.40;55.40;;;;;;5039564;28;20454;-61
2022/06/02 08:39:25;;;;;;;2.83;2.60;;;18.50;55.00;;;;;;5038544;28;20835;-62
2022/06/02 08:42:11;;;;;;;3.83;2.20;;;18.60;54.20;;;;;;5036618;28;20414;-62
2022/06/02 08:45:21;;;;;;;3.53;2.23;;;18.60;52.50;;;;;;5028581;28;20477;-61
2022/06/02 08:47:52;;;;;;;5.60;2.53;;;18.70;53.40;;;;;;5023260;28;20430;-61
2022/06/02 08:50:46;;;;;;;4.63;2.53;;;18.70;53.40;;;;;;5024598;28;20510;-62
2022/06/02 08:53:39;;;;;;;9.93;2.63;;;18.70;52.70;;;;;;5038168;28;20461;-60
2022/06/02 08:56:33;;;;;;;3.47;2.63;;;18.90;52.90;;;;;;5047724;28;20441;-63
2022/06/02 08:59:18;;;;;;;2.53;2.33;;;18.90;51.90;;;;;;5047932;28;20410;-61
2022/06/02 09:02:02;;;;;;;4.10;2.50;;;18.90;52.50;;;;;;5046678;28;20463;-61
2022/06/02 09:04:43;;;;;;;3.43;2.43;;;18.90;52.60;;;;;;5044894;28;20469;-61
2022/06/02 09:07:20;;;;;;;2.37;2.17;;;18.90;53.20;;;;;;5048061;28;20493;-62
2022/06/02 09:09:58;;;;;;;3.30;2.53;;;18.90;53.40;;;;;;5036532;28;20406;-62
2022/06/02 09:12:50;;;;;;;4.20;2.43;;;19.00;53.20;;;;;;5042116;28;20548;-63
2022/06/02 09:15:34;;;;;;;4.40;2.30;;;19.10;53.30;;;;;;5042937;28;20501;-61
2022/06/02 09:18:15;;;;;;;5.83;2.30;;;19.30;53.30;;;;;;5044454;28;20425;-61
2022/06/02 09:20:55;;;;;;;3.10;2.43;;;19.50;53.00;;;;;;5046302;28;20405;-61
2022/06/02 09:23:46;;;;;;;3.67;2.10;;;19.60;53.00;;;;;;5048151;28;20418;-60
2022/06/02 09:26:46;;;;;;;2.60;2.40;;;19.80;53.00;;;;;;5042852;28;20436;-61
2022/06/02 09:29:22;;;;;;;4.60;2.20;;;19.70;51.90;;;;;;5039770;28;20439;-61
2022/06/02 09:32:15;;;;;;;4.33;2.50;;;19.80;52.00;;;;;;5050136;28;20416;-61
2022/06/02 09:34:59;;;;;;;2.97;2.57;;;19.90;52.70;;;;;;5049720;28;20976;-59
2022/06/02 09:38:06;;;;;;;6.40;2.27;;;20.20;51.40;;;;;;5041992;28;20397;-62
2022/06/02 09:40:55;;;;;;;5.87;2.27;;;20.20;50.60;;;;;;5044896;28;20421;-60
2022/06/02 09:43:40;;;;;;;2.00;1.80;;;20.30;51.60;;;;;;5048838;28;20444;-60
2022/06/02 09:46:21;;;;;;;4.23;2.53;;;20.50;52.50;;;;;;5035720;28;20463;-61
2022/06/02 09:48:50;;;;;;;3.00;2.50;;;20.80;52.80;;;;;;5047861;28;20850;-60
2022/06/02 09:51:31;;;;;;;3.97;2.00;;;20.90;53.00;;;;;;5051399;28;20513;-59
2022/06/02 09:54:15;;;;;;;4.53;2.87;;;21.20;53.30;;;;;;5045955;28;20449;-62
2022/06/02 09:56:59;;;;;;;5.60;2.30;;;21.30;53.40;;;;;;5051335;28;20480;-61
2022/06/02 09:59:40;;;;;;;2.40;2.10;;;21.50;52.00;;;;;;5051680;28;20494;-62
2022/06/02 10:02:23;;;;;;;2.10;2.00;;;21.50;51.30;;;;;;5038652;28;20488;-61
2022/06/02 10:05:13;;;;;;;3.90;2.40;;;21.60;51.00;;;;;;5050042;28;20416;-61
2022/06/02 10:07:50;;;;;;;2.50;2.30;;;21.70;51.70;;;;;;5051705;28;20386;-60
2022/06/02 10:10:46;;;;;;;8.67;2.20;;;21.80;51.00;;;;;;5034354;28;20953;-60
2022/06/02 10:13:40;;;;;;;4.47;3.30;;;21.90;51.40;;;;;;5031369;28;20933;-61
2022/06/02 10:16:21;;;;;;;3.60;2.27;;;22.00;50.60;;;;;;5047748;28;20429;-62
2022/06/02 10:18:52;;;;;;;4.47;2.57;;;22.20;51.90;;;;;;5048898;28;20431;-60
2022/06/02 10:21:46;;;;;;;3.10;2.33;;;22.40;51.60;;;;;;5050849;28;20930;-61
2022/06/02 10:24:42;;;;;;;4.93;2.60;;;22.50;50.00;;;;;;5020872;28;20943;-61
2022/06/02 10:27:30;;;;;;;4.00;2.80;;;22.60;49.70;;;;;;5045432;28;20429;-61
2022/06/02 10:30:10;;;;;;;7.30;2.60;;;22.90;50.50;;;;;;5047848;28;20654;-60
2022/06/02 10:32:52;;;;;;;2.77;2.57;;;22.90;49.60;;;;;;5047206;28;20538;-62
2022/06/02 10:35:39;;;;;;;5.83;2.70;;;22.70;49.20;;;;;;5044653;28;20449;-58
2022/06/02 10:38:27;;;;;;;3.13;2.83;;;22.60;49.40;;;;;;5051737;28;20493;-61
2022/06/02 10:41:19;;;;;;;4.00;2.80;;;22.50;49.70;;;;;;5032526;28;20433;-61
2022/06/02 10:43:51;;;;;;;4.20;3.10;;;22.60;49.50;;;;;;5033743;28;20515;-60
2022/06/02 10:46:35;;;;;;;3.53;2.20;;;22.70;48.10;;;;;;5042442;28;20448;-61
2022/06/02 10:49:36;;;;;;;2.80;2.20;;;22.60;48.00;;;;;;5050727;28;20936;-61
2022/06/02 10:52:19;;;;;;;4.10;2.27;;;22.80;48.80;;;;;;5016250;28;20435;-59
2022/06/02 10:55:12;;;;;;;3.50;2.27;;;23.10;48.40;;;;;;5041887;28;21008;-61
2022/06/02 10:57:38;;;;;;;2.83;2.50;;;23.30;48.40;;;;;;5032747;28;20509;-60
2022/06/02 11:00:24;;;;;;;2.43;2.23;;;23.60;47.10;;;;;;5033873;28;20517;-61
2022/06/02 11:03:21;;;;;;;8.67;2.50;;;23.60;46.40;;;;;;5040414;28;20186;-60
2022/06/02 11:06:01;;;;;;;4.40;2.00;;;23.40;45.80;;;;;;5049611;28;20405;-61
2022/06/02 11:08:47;;;;;;;4.03;2.40;;;23.10;46.00;;;;;;5048416;28;20520;-61
2022/06/02 11:11:39;;;;;;;2.73;2.30;;;23.00;47.30;;;;;;5044926;28;20440;-61
2022/06/02 11:14:09;;;;;;;4.73;2.43;;;23.20;47.50;;;;;;5043811;28;20471;-61
2022/06/02 11:16:53;;;;;;;3.13;2.80;;;23.20;47.10;;;;;;5047780;28;20433;-61
2022/06/02 11:19:34;;;;;;;3.53;2.63;;;23.10;47.70;;;;;;5045822;28;20517;-61
2022/06/02 11:22:38;;;;;;;4.10;2.07;;;22.90;47.60;;;;;;5049477;28;20495;-61
2022/06/02 11:25:16;;;;;;;3.03;2.40;;;22.60;47.30;;;;;;5049487;28;20437;-60
2022/06/02 11:28:03;;;;;;;3.37;2.60;;;22.40;48.70;;;;;;5045687;28;20545;-61
2022/06/02 11:31:25;;;;;;;5.40;2.53;;;22.40;49.30;;;;;;5042032;28;20443;-61
2022/06/02 11:33:57;;;;;;;9.80;2.80;;;22.40;49.10;;;;;;4990826;28;20499;-61
2022/06/02 11:36:34;;;;;;;5.80;2.43;;;22.40;49.20;;;;;;4995369;28;20435;-61
2022/06/02 11:39:08;;;;;;;4.53;2.70;;;22.60;49.80;;;;;;5032165;28;20410;-61
2022/06/02 11:42:08;;;;;;;3.40;2.40;;;22.80;49.20;;;;;;5049049;28;20433;-61
2022/06/02 11:44:54;;;;;;;4.13;2.30;;;22.90;48.10;;;;;;5037916;28;20450;-62
2022/06/02 11:47:39;;;;;;;4.93;2.83;;;23.10;49.30;;;;;;5029209;28;20482;-61
2022/06/02 11:50:32;;;;;;;8.63;2.83;;;23.40;48.90;;;;;;5028779;28;20402;-61
2022/06/02 11:53:14;;;;;;;3.10;2.80;;;23.60;48.50;;;;;;5063984;28;21009;-62
2022/06/02 11:56:06;;;;;;;3.57;2.60;;;23.80;47.60;;;;;;5046213;28;20457;-62
2022/06/02 11:59:09;;;;;;;3.50;3.20;;;24.00;48.90;;;;;;5045753;28;20433;-61
2022/06/02 12:01:37;;;;;;;4.97;2.53;;;24.30;48.20;;;;;;5040601;28;20429;-62
2022/06/02 12:04:24;;;;;;;4.20;2.90;;;24.50;48.10;;;;;;5041595;28;20499;-60
2022/06/02 12:06:59;;;;;;;7.17;2.93;;;24.50;48.00;;;;;;5049293;28;20739;-60
2022/06/02 12:09:37;;;;;;;7.70;3.47;;;24.30;47.60;;;;;;5046827;28;20925;-61
2022/06/02 12:12:10;;;;;;;3.10;2.77;;;24.00;47.60;;;;;;5043506;28;21201;-60
2022/06/02 12:15:01;;;;;;;2.90;2.27;;;23.80;47.40;;;;;;5048910;28;20441;-61
2022/06/02 12:17:38;;;;;;;3.00;2.60;;;23.70;47.90;;;;;;5048907;28;20471;-61
2022/06/02 12:20:26;;;;;;;3.10;2.73;;;23.60;49.10;;;;;;5048563;28;20425;-61
2022/06/02 12:23:23;;;;;;;6.17;3.23;;;23.50;49.00;;;;;;5041171;28;20795;-60
2022/06/02 12:25:51;;;;;;;6.63;2.97;;;23.20;48.30;;;;;;5045092;28;20409;-59
2022/06/02 12:28:20;;;;;;;3.33;3.03;;;23.00;48.90;;;;;;5045108;28;20425;-61
2022/06/02 12:30:51;;;;;;;5.57;3.03;;;22.80;48.90;;;;;;5036995;28;20926;-59
2022/06/02 12:34:01;;;;;;;3.30;3.00;;;22.70;49.60;;;;;;5047174;28;20463;-60
2022/06/02 12:36:35;;;;;;;2.80;2.37;;;22.60;50.00;;;;;;4998540;28;20443;-60
2022/06/02 12:39:04;;;;;;;3.13;2.83;;;22.40;50.30;;;;;;5023955;28;20909;-55
2022/06/02 12:41:45;;;;;;;3.00;2.70;;;22.30;50.70;;;;;;5056366;28;20529;-58
2022/06/02 12:44:40;;;;;;;3.40;3.00;;;22.20;51.00;;;;;;5045385;28;20558;-58
2022/06/02 12:47:45;;;;;;;6.50;2.90;;;22.10;51.60;;;;;;5026510;28;20430;-57
2022/06/02 12:50:37;;;;;;;5.50;3.07;;;21.90;51.10;;;;;;5042427;28;20519;-58
2022/06/02 12:53:30;;;;;;;3.23;2.90;;;21.60;51.20;;;;;;5032373;28;20457;-58
2022/06/02 12:56:28;;;;;;;3.60;2.83;;;21.50;51.70;;;;;;5034936;28;20473;-58
2022/06/02 12:59:24;;;;;;;5.33;3.20;;;21.40;52.00;;;;;;5025723;28;20461;-60
2022/06/02 13:01:58;;;;;;;9.63;2.60;;;21.30;52.10;;;;;;5027647;28;20445;-60
2022/06/02 13:04:40;;;;;;;3.90;3.00;;;21.50;52.60;;;;;;5038173;28;20453;-60
2022/06/02 13:07:33;;;;;;;3.77;3.17;;;21.60;52.60;;;;;;5043614;28;20445;-60
2022/06/02 13:10:13;;;;;;;3.20;2.90;;;21.70;52.90;;;;;;5040227;28;20442;-61
2022/06/02 13:12:56;;;;;;;3.77;2.50;;;21.60;52.70;;;;;;5037046;28;20461;-61
2022/06/02 13:15:49;;;;;;;6.30;3.03;;;21.60;52.80;;;;;;5038853;28;20433;-62
2022/06/02 13:18:51;;;;;;;4.37;3.23;;;21.40;52.90;;;;;;5033484;28;20969;-61
2022/06/02 13:21:29;;;;;;;4.83;3.07;;;21.30;52.90;;;;;;5036767;28;20426;-60
2022/06/02 13:24:28;;;;;;;7.73;3.50;;;21.10;53.10;;;;;;5034531;28;20502;-64
2022/06/02 13:27:22;;;;;;;7.07;3.33;;;21.00;53.40;;;;;;5039521;28;20445;-61
2022/06/02 13:30:24;;;;;;;5.20;3.47;;;20.80;54.00;;;;;;5037620;28;20474;-60
2022/06/02 13:33:05;;;;;;;3.90;3.50;;;20.70;54.70;;;;;;5038334;28;20998;-60
2022/06/02 13:35:57;;;;;;;5.63;3.30;;;20.60;56.10;;;;;;5033682;28;20845;-60
2022/06/02 13:38:50;;;;;;;4.40;3.37;;;20.50;56.90;;;;;;5036700;28;20473;-59
2022/06/02 13:41:35;;;;;;;4.40;4.00;;;20.40;57.70;;;;;;5035636;28;20431;-60
2022/06/02 13:44:22;;;;;;;7.93;4.40;;;20.20;57.70;;;;;;5043588;28;20457;-63
2022/06/02 13:47:21;;;;;;;5.00;4.07;;;20.10;58.70;;;;;;5040685;28;21015;-59
2022/06/02 13:50:05;;;;;;;6.10;4.40;;;20.00;59.60;;;;;;5042520;28;20543;-59
2022/06/02 13:53:08;;;;;;;8.00;4.57;;;19.90;60.40;;;;;;5046332;28;20461;-58
2022/06/02 13:58:46;;;;;;;5.57;4.80;;;19.70;61.80;;;;;;5028399;28;20463;-62
2022/06/02 14:01:47;;;;;;;7.83;4.97;;;19.70;61.50;;;;;;5044599;28;20942;-61
2022/06/02 14:04:21;;;;;;;5.83;4.37;;;19.70;63.30;;;;;;5010910;28;20462;-61
2022/06/02 14:07:35;;;;;;;10.37;4.87;;;19.70;64.80;;;;;;5040995;28;20546;-63
2022/06/02 14:10:23;;;;;;;9.30;4.50;;;19.60;66.80;;;;;;5001671;28;20602;-56
2022/06/02 14:13:10;;;;;;;6.57;5.30;;;19.60;69.10;;;;;;5034493;28;21098;-57
2022/06/02 14:16:11;;;;;;;6.57;4.93;;;19.60;71.50;;;;;;5041420;28;20429;-59
2022/06/02 14:18:46;;;;;;;9.20;5.50;;;19.60;77.80;;;;;;5029008;28;20448;-60
2022/06/02 14:21:30;;;;;;;5.53;5.03;;;19.60;91.20;;;;;;5034909;28;20496;-61
2022/06/02 14:24:07;;;;;;;6.00;4.70;;;19.60;99.00;;;;;;5039158;28;20485;-58
2022/06/02 14:26:56;;;;;;;4.60;4.20;;;19.50;99.90;;;;;;5039115;28;20433;-59